• Join FlightAware (Why Join?)
  • Login
  • US Flag 
01:22AM EDT


 

Airport Tracker/Info


-or-


 

Live Flight TrackerFlight Track Log ✈ DAL3676 ✈ 08-Apr-2013 ✈ KHSV - KDTW

Flight Track Log - Related Links

Times and Time Zones

All times are in EDT time to prevent confusion due to time zone crossing. See the DAL3676 flight status page for this flight to view local times or setup timezone preferences in your user account.

Time Position Orientation Groundspeed Altitude Reporting Facility
EDT Latitude Longitude Course Direction KTS MPH feet Rate Location/Type
09:12PM 34.7175 -86.6986 North 287 330 9,300  Level Memphis Center
09:13PM 34.8053 -86.7000 359° North 298 343 11,300 1,800 Climbing Memphis Center
09:14PM 34.9033 -86.6983 North 321 369 13,000 1,920 Climbing Memphis Center
09:15PM 35.0056 -86.6964 North 347 399 15,200 2,100 Climbing Memphis Center
09:16PM 35.2718 -86.7262 North  Level FlightAware Approximate
09:16PM 35.1033 -86.6944 North 352 405 17,300  Level Memphis Center
09:17PM 35.3783 -86.7167 North  Level FlightAware Approximate
09:17PM 35.2033 -86.6903 North 352 405 19,000  Level Memphis Center
09:18PM 35.4850 -86.7167 North  Level FlightAware Approximate
09:18PM 35.3078 -86.6906 360° North 368 423 20,400  Level Memphis Center
09:19PM 35.4183 -86.6908 360° North 379 436 21,500 1,140 Climbing Memphis Center
09:20PM 35.5161 -86.6892 North 384 442 22,700 1,200 Climbing Memphis Center
09:21PM 35.6267 -86.6894 360° North 389 448 23,900 1,020 Climbing Memphis Center
09:22PM 35.7392 -86.6844 North 389 448 24,800 720 Climbing Memphis Center
09:23PM 35.8600 -86.6764 North 413 475 25,400 600 Climbing Memphis Center
09:24PM 35.9786 -86.6658 North 423 487 26,100 720 Climbing Memphis Center
09:25PM 36.1014 -86.6578 North 428 493 26,900 780 Climbing Memphis Center
09:26PM 36.2239 -86.6472 North 433 498 27,700 780 Climbing Memphis Center
09:27PM 36.3444 -86.6364 North 439 505 28,500 600 Climbing Memphis Center
09:28PM 36.4694 -86.6281 North 439 505 29,000 240 Climbing Memphis Center
09:29PM 36.5922 -86.6200 North 439 505 29,000  Level Memphis Center
09:31PM 36.8506 -86.6008 North 464 534 29,000  Level Indianapolis Center
09:32PM 37.0031 -86.5894 North 467 537 29,000  Level Indianapolis Center
09:33PM 37.1350 -86.5794 North 471 542 29,000  Level Indianapolis Center
09:34PM 37.2661 -86.5678 North 467 537 29,000  Level Indianapolis Center
09:35PM 37.3978 -86.5578 North 469 540 29,000  Level Indianapolis Center
09:36PM 37.5286 -86.5486 North 468 539 29,000  Level Indianapolis Center
09:37PM 37.6592 -86.5383 North 469 540 29,000  Level Indianapolis Center
09:38PM 37.7911 -86.5006 13° North 485 558 29,000  Level Indianapolis Center
09:39PM 37.9178 -86.4536 16° North 486 559 29,000  Level Indianapolis Center
09:40PM 38.0442 -86.4025 18° North 480 552 29,000  Level Indianapolis Center
09:42PM 38.1731 -86.3511 17° North 484 557 29,000  Level Indianapolis Center
09:43PM 38.3006 -86.2997 18° North 482 555 29,000  Level Indianapolis Center
09:44PM 38.4550 -86.2408 17° North 483 556 29,000  Level Indianapolis Center
09:45PM 38.5828 -86.1889 18° North 483 556 29,000  Level Indianapolis Center
09:46PM 38.7106 -86.1372 18° North 482 555 29,000  Level Indianapolis Center
09:47PM 38.8392 -86.0858 17° North 484 557 29,000  Level Indianapolis Center
09:48PM 38.9711 -86.0311 18° North 473 544 29,000  Level Indianapolis Center
09:49PM 39.0956 -85.9803 18° North 467 537 29,000  Level Indianapolis Center
09:50PM 39.2189 -85.9294 18° North 464 534 29,000  Level Indianapolis Center
09:51PM 39.3450 -85.8778 18° North 473 544 29,000  Level Indianapolis Center
09:52PM 39.4711 -85.8258 18° North 474 545 29,000  Level Indianapolis Center
09:53PM 39.5961 -85.7744 18° North 472 543 29,000  Level Indianapolis Center
09:54PM 39.7206 -85.7217 18° North 472 543 29,000  Level Indianapolis Center
09:55PM 39.8458 -85.6706 17° North 471 542 29,000  Level Indianapolis Center
09:56PM 39.9703 -85.6178 18° North 469 540 29,000  Level Indianapolis Center
09:57PM 40.0950 -85.5653 18° North 468 539 29,000  Level Indianapolis Center
09:57PM 40.1553 -85.5397 18° North 462 532 29,000  Level Chicago Center
09:58PM 40.2750 -85.4897 18° North 449 517 29,000  Level Chicago Center
09:59PM 40.3953 -85.4372 18° North 451 519 29,000  Level Chicago Center
10:00PM 40.5178 -85.3869 17° North 457 526 29,000  Level Chicago Center
10:01PM 40.6375 -85.3364 18° North 453 521 29,000  Level Chicago Center
10:02PM 40.7567 -85.2814 19° North 434 499 29,000 -420 Level Chicago Center
10:03PM 40.8700 -85.2339 18° North 430 495 28,200 -1,260 Descending Chicago Center
10:04PM 40.9894 -85.1753 20° North 453 521 26,500 -1,800 Descending Chicago Center
10:05PM 41.0967 -85.0622 38° Northeast 490 564 24,600 -1,920 Descending Chicago Center
10:06PM 41.2025 -84.9469 39° Northeast 495 570 22,600 -1,800 Descending Chicago Center
10:07PM 41.2969 -84.8456 39° Northeast 449 517 21,000 -840 Descending Chicago Center
10:08PM 41.4044 -84.7167 42° Northeast 444 511 21,000  Level Chicago Center
10:09PM 41.4889 -84.5831 50° Northeast 471 542 21,000  Level Chicago Center
10:10PM 41.5250 -84.5275 49° Northeast 456 525 21,000 -1,680 Level Cleveland Center
10:11PM 41.6067 -84.3964 50° Northeast 464 534 18,700 -2,400 Descending Cleveland Center
10:12PM 41.6836 -84.2758 49° Northeast 450 518 16,300 -2,220 Descending Cleveland Center
10:13PM 41.7456 -84.1653 53° Northeast 427 491 14,300 -2,400 Descending Cleveland Center
10:13PM 41.7869 -84.1061 47° Northeast 426 490 12,900 -2,220 Descending Cleveland Center
10:14PM 41.8222 -84.0442 53° Northeast 422 486 12,100 -1,020 Descending Cleveland Center
10:14PM 41.8614 -83.9847 48° Northeast 412 474 11,900 -120 Descending Cleveland Center
10:15PM 41.8925 -83.9250 55° Northeast 417 480 12,000  Climbing Cleveland Center
10:15PM 41.9386 -83.8467 52° Northeast 406 467 11,900  Descending Cleveland Center
10:16PM 41.9606 -83.8058 54° Northeast 407 468 12,000 60 Climbing Cleveland Center
10:16PM 42.0081 -83.7439 44° Northeast 405 466 12,000  Level Cleveland Center
10:17PM 42.0444 -83.7094 35° Northeast 400 460 12,000 -120 Level Cleveland Center
10:17PM 42.1039 -83.6703 26° Northeast 392 451 11,900  Descending Cleveland Center
10:18PM 42.1403 -83.6411 31° Northeast 385 443 12,000 -1,320 Climbing Cleveland Center
10:18PM 42.1892 -83.6042 29° Northeast 330 380 10,600 -2,340 Descending Cleveland Center
10:19PM 42.2169 -83.5803 32° Northeast 361 415 9,700 -3,060 Descending Cleveland Center
10:19PM 42.2594 -83.5458 31° Northeast 291 335 7,500 2,280 Descending Cleveland Center
10:20PM 42.2933 -83.5194 30° Northeast 304 350 12,000 -2,700 Climbing Cleveland Center
10:20PM 42.3317 -83.4931 27° Northeast 280 322 4,800 -7,800 Descending Cleveland Center
10:21PM 42.3550 -83.4744 31° Northeast 279 321 4,200 -840 Descending Cleveland Center
10:21PM 42.3978 -83.4342 35° Northeast 275 316 3,900 -240 Descending Cleveland Center
10:22PM 42.4069 -83.3953 72° East 253 291 4,000 -720 Climbing Cleveland Center
10:22PM 42.4067 -83.3278 90° East 280 322 3,200 -660 Descending Cleveland Center
10:24PM 42.3583 -83.2525 131° Southeast 190 219 2,900 -360 Descending Cleveland Center
10:24PM 42.3261 -83.2933 223° Southwest 175 201 2,500 -480 Descending Cleveland Center